Troy, AL

12:15 PM CDT on September 02, 2015 (GMT -0500)
APRSWXNET | | Change Station
CLOSE
Current Station
Personal Weather Station
Location: Troy, AL
Elevation: 528 ft
Nearby Weather Stations

Elev 528 ft 31.80 °N, 85.95 °W | Updated 18 minutes ago

Partly Cloudy
Partly Cloudy
89 °F
Feels Like 95 °F
N
0
Wind Variable Wind from NNW
Gusts 4.0 mph

Today
High -- | Low -- °F
--% Chance of Precip.
Yesterday
High -- | Low -- °F
Precip. -- in
6:19 AM 7:06 PM
Waning Gibbous, 79% visible
Pressure 30.06 in
Visibility 10.0 miles
Clouds Mostly Cloudy 4800 ft
Mostly Cloudy 6000 ft
Mostly Cloudy 7500 ft
Heat Index 95 °F
Dew Point 71 °F
Humidity 56%
Rainfall in
Snow Depth Not available.
UV 6 out of 12
Pollen 8.80 out of 12
Air Quality Not available.
Flu Activity Not available.
METAR KTOI 021653Z AUTO VRB05KT 10SM BKN048 BKN060 BKN075 34/21 A3008 RMK AO2 SLP179 T03390211
Pressure 30.06 in
Visibility 10.0 miles
Clouds Mostly Cloudy 4800 ft
Mostly Cloudy 6000 ft
Mostly Cloudy 7500 ft
Heat Index 95 °F
Dew Point 71 °F
Humidity 56%
Rainfall in
Snow Depth Not available.
UV 6 out of 12
Pollen 8.80 out of 12
Air Quality Not available.
Flu Activity Not available.
METAR KTOI 021653Z AUTO VRB05KT 10SM BKN048 BKN060 BKN075 34/21 A3008 RMK AO2 SLP179 T03390211

10-Day Weather Forecast

×

Almanac

Astronomy

Sep. 02, 2015 Rise Set
Actual Time
Civil Twilight
Nautical Twilight
Astronomical Twilight
Moon
Length of Visible Light
Length of Day
Tomorrow will be .
, % of the Moon is Illuminated

Today's Extremes

State Highs State Lows

Community

WunderPhotos

Upload Photos

1,851,785 photos uploaded!

WunderBlogs® & News

Nearby

Air Quality

  Air Quality AQ Index Pollutant
Not available.

Snow Depth

Station Depth Elevation

Earthquake Activity

City Distance Mag. Time & Date
Minimum magnitude displayed is 2.5.

Coastal Water Temperatures

Place Temperature

Stations

Nearby Weather Stations

Station Location Temp. Windchill Dew Point Humidity Wind Precip. Elev Updated Type